createdAt,value
2023-05-19T00:01:09.101Z,55.28
2023-05-19T00:06:11.829Z,55.76
2023-05-19T00:11:14.553Z,55.89
2023-05-19T00:16:17.419Z,55.64
2023-05-19T00:21:20.762Z,56.86
2023-05-19T00:26:24.152Z,56.24
2023-05-19T00:31:27.042Z,56.13
2023-05-19T00:36:29.589Z,56.31
2023-05-19T00:41:32.158Z,56.45
2023-05-19T00:46:34.823Z,57.95
2023-05-19T00:51:37.435Z,57.45
2023-05-19T00:56:39.985Z,57.88
2023-05-19T01:01:42.994Z,57.17
2023-05-19T01:06:49.600Z,57.46
2023-05-19T01:11:52.841Z,57.06
2023-05-19T01:17:17.552Z,57.11
2023-05-19T01:22:42.618Z,58.36
2023-05-19T01:28:16.946Z,58.40
2023-05-19T01:33:22.223Z,58.36
2023-05-19T01:38:25.304Z,58.57
2023-05-19T01:43:29.082Z,58.39
2023-05-19T01:48:33.323Z,58.50
2023-05-19T01:53:36.198Z,58.91
2023-05-19T01:58:47.382Z,58.90
2023-05-19T02:04:16.196Z,58.79
2023-05-19T02:09:25.383Z,58.53
2023-05-19T02:14:38.426Z,58.24
2023-05-19T02:19:40.994Z,58.04
2023-05-19T02:24:44.951Z,57.77
2023-05-19T02:29:47.435Z,58.62
2023-05-19T02:34:49.956Z,58.25
2023-05-19T02:39:52.474Z,58.45
2023-05-19T02:44:55.138Z,59.56
2023-05-19T02:49:57.684Z,59.65
2023-05-19T02:55:00.557Z,59.27
2023-05-19T03:00:03.443Z,60.57
2023-05-19T03:05:07.734Z,65.33
2023-05-19T03:10:10.468Z,66.53
2023-05-19T03:15:14.846Z,62.26
2023-05-19T03:20:17.949Z,57.55
2023-05-19T03:25:20.489Z,54.57
2023-05-19T03:30:23.168Z,57.05
2023-05-19T03:35:25.704Z,58.59
2023-05-19T03:40:28.201Z,59.15
2023-05-19T03:45:30.710Z,59.55
2023-05-19T03:50:33.871Z,59.41
2023-05-19T03:55:37.196Z,63.05
2023-05-19T04:00:40.077Z,62.82
2023-05-19T04:05:42.685Z,57.46
2023-05-19T04:10:45.366Z,55.79
2023-05-19T04:15:48.242Z,58.10
2023-05-19T04:20:51.110Z,57.76
2023-05-19T04:25:54.335Z,57.81
2023-05-19T04:30:58.513Z,58.38
2023-05-19T04:36:05.454Z,58.63
2023-05-19T04:41:10.748Z,58.86
2023-05-19T04:46:14.088Z,58.99
2023-05-19T04:51:17.789Z,59.35
2023-05-19T04:56:20.658Z,59.61
2023-05-19T05:01:26.106Z,59.77
2023-05-19T05:06:29.929Z,59.60
2023-05-19T05:11:32.691Z,59.79
2023-05-19T05:16:36.194Z,60.00
2023-05-19T05:21:39.027Z,59.93
2023-05-19T05:26:41.961Z,59.98
2023-05-19T05:31:44.476Z,59.92
2023-05-19T05:36:46.977Z,59.93
2023-05-19T05:41:49.596Z,59.94
2023-05-19T05:46:52.406Z,59.91
2023-05-19T05:52:05.828Z,59.83
2023-05-19T05:57:10.638Z,59.68
2023-05-19T06:02:13.386Z,59.46
2023-05-19T06:07:16.045Z,59.37
2023-05-19T06:12:18.621Z,59.12
2023-05-19T06:17:21.213Z,58.92
2023-05-19T06:22:23.741Z,58.75
2023-05-19T06:27:26.325Z,58.57
2023-05-19T06:32:29.854Z,58.40
2023-05-19T06:37:32.912Z,58.13
2023-05-19T06:42:35.597Z,57.93
2023-05-19T06:47:38.499Z,58.04
2023-05-19T06:52:42.764Z,57.60
2023-05-19T06:57:45.308Z,57.39
2023-05-19T07:02:48.329Z,56.50
2023-05-19T07:07:51.353Z,56.34
2023-05-19T07:12:53.935Z,56.12
2023-05-19T07:17:58.424Z,56.10
2023-05-19T07:23:02.566Z,55.59
2023-05-19T07:28:05.363Z,55.24
2023-05-19T07:33:08.244Z,54.89
2023-05-19T07:38:10.955Z,54.36
2023-05-19T07:43:13.510Z,54.27
2023-05-19T07:48:18.609Z,54.24
2023-05-19T07:53:22.653Z,54.30
2023-05-19T07:58:26.405Z,54.51
2023-05-19T08:03:30.422Z,54.73
2023-05-19T08:08:33.920Z,54.79
2023-05-19T08:13:36.779Z,54.75
2023-05-19T08:18:39.479Z,54.58
2023-05-19T08:23:42.084Z,54.41
2023-05-19T08:28:46.274Z,54.00
2023-05-19T08:33:49.104Z,53.34
2023-05-19T08:38:51.805Z,53.12
2023-05-19T08:43:54.918Z,52.85
2023-05-19T08:49:02.086Z,52.74
2023-05-19T08:54:14.581Z,53.04
2023-05-19T08:59:17.882Z,52.72
2023-05-19T09:04:20.764Z,52.29
2023-05-19T09:09:23.359Z,52.52
2023-05-19T09:14:26.811Z,52.33
2023-05-19T09:19:30.145Z,51.95
2023-05-19T09:24:34.580Z,50.84
2023-05-19T09:29:37.183Z,49.93
2023-05-19T09:34:43.742Z,49.44
2023-05-19T09:39:50.839Z,49.47
2023-05-19T09:45:03.080Z,49.17
2023-05-19T09:50:08.738Z,49.48
2023-05-19T09:55:13.434Z,49.57
2023-05-19T10:00:19.641Z,49.98
2023-05-19T10:05:22.617Z,49.54
2023-05-19T10:10:27.239Z,48.62
2023-05-19T10:15:30.515Z,47.93
2023-05-19T10:20:35.098Z,48.04
2023-05-19T10:25:38.710Z,48.29
2023-05-19T10:30:44.749Z,48.81
2023-05-19T10:36:15.711Z,48.56
2023-05-19T10:41:24.156Z,49.15
2023-05-19T10:46:28.351Z,49.55
2023-05-19T10:51:31.995Z,50.05
2023-05-19T10:56:36.107Z,50.92
2023-05-19T11:01:41.524Z,51.70
2023-05-19T11:06:51.462Z,52.64
2023-05-19T11:11:54.752Z,52.98
2023-05-19T11:16:58.455Z,53.46
2023-05-19T11:22:16.879Z,53.94
2023-05-19T11:27:38.136Z,54.49
2023-05-19T11:32:44.626Z,54.72
2023-05-19T11:37:49.070Z,54.67
2023-05-19T11:42:51.662Z,55.03
2023-05-19T11:48:02.637Z,56.67
2023-05-19T11:53:06.238Z,55.59
2023-05-19T11:58:08.931Z,55.68
2023-05-19T12:03:11.819Z,56.11
2023-05-19T12:08:16.985Z,55.92
2023-05-19T12:13:20.819Z,56.04
2023-05-19T12:18:23.427Z,58.48
2023-05-19T12:23:27.152Z,57.88
2023-05-19T12:28:31.065Z,58.60
2023-05-19T12:33:35.699Z,58.45
2023-05-19T12:38:39.502Z,59.43
2023-05-19T12:43:42.208Z,58.28
2023-05-19T12:48:45.825Z,58.71
2023-05-19T12:53:50.117Z,59.07
2023-05-19T12:58:55.776Z,59.63
2023-05-19T13:03:58.482Z,59.32
2023-05-19T13:09:01.195Z,60.00
2023-05-19T13:14:03.702Z,60.70
2023-05-19T13:19:06.560Z,60.85
2023-05-19T13:24:09.205Z,62.23
2023-05-19T13:29:11.872Z,58.06
2023-05-19T13:34:14.712Z,57.40
2023-05-19T13:39:17.242Z,57.88
2023-05-19T13:44:19.785Z,57.85
2023-05-19T13:49:22.718Z,57.66
2023-05-19T13:54:25.379Z,57.67
2023-05-19T13:59:28.274Z,57.58
2023-05-19T14:04:31.092Z,57.96
2023-05-19T14:09:33.945Z,58.08
2023-05-19T14:14:36.725Z,59.05
2023-05-19T14:19:39.388Z,60.18
2023-05-19T14:24:41.899Z,59.90
2023-05-19T14:29:44.444Z,60.30
2023-05-19T14:34:47.055Z,60.12
2023-05-19T14:39:49.736Z,59.78
2023-05-19T14:44:52.306Z,60.41
2023-05-19T14:49:54.917Z,59.97
2023-05-19T14:54:57.585Z,59.68
2023-05-19T15:00:01.459Z,59.40
2023-05-19T15:05:04.449Z,59.35
2023-05-19T15:10:08.092Z,59.00
2023-05-19T15:15:12.689Z,58.73
2023-05-19T15:20:15.313Z,58.74
2023-05-19T15:25:18.972Z,58.96
2023-05-19T15:30:22.988Z,59.25
2023-05-19T15:35:27.510Z,59.45
2023-05-19T15:40:30.359Z,59.75
2023-05-19T15:45:32.952Z,59.59
2023-05-19T15:50:36.932Z,59.44
2023-05-19T15:55:39.735Z,59.50
2023-05-19T16:00:42.887Z,59.77
2023-05-19T16:05:45.490Z,59.48
2023-05-19T16:10:48.272Z,59.99
2023-05-19T16:15:51.000Z,59.71
2023-05-19T16:20:53.601Z,59.53
2023-05-19T16:25:57.568Z,59.92
2023-05-19T16:31:00.535Z,59.88
2023-05-19T16:36:03.813Z,60.40
2023-05-19T16:41:10.718Z,60.29
2023-05-19T16:46:13.370Z,60.07
2023-05-19T16:51:16.419Z,60.45
2023-05-19T16:56:19.032Z,61.13
2023-05-19T17:01:21.872Z,67.12
2023-05-19T17:06:24.500Z,66.49
2023-05-19T17:11:27.447Z,61.33
2023-05-19T17:16:30.007Z,53.31
2023-05-19T17:21:32.528Z,54.23
2023-05-19T17:26:35.209Z,54.76
2023-05-19T17:31:37.819Z,56.92
2023-05-19T17:36:41.596Z,57.80
2023-05-19T17:41:44.121Z,57.92
2023-05-19T17:46:46.773Z,60.71
2023-05-19T17:51:49.937Z,59.68
2023-05-19T17:56:57.262Z,66.04
2023-05-19T18:02:00.206Z,64.92
2023-05-19T18:07:03.514Z,57.66
2023-05-19T18:12:06.253Z,56.88
2023-05-19T18:17:11.270Z,59.35
2023-05-19T18:22:14.765Z,60.39
2023-05-19T18:27:17.318Z,59.69
2023-05-19T18:32:19.805Z,63.35
2023-05-19T18:37:22.430Z,64.36
2023-05-19T18:42:24.928Z,58.03
2023-05-19T18:47:27.512Z,57.61
2023-05-19T18:52:31.292Z,59.01
2023-05-19T18:57:34.148Z,61.90
2023-05-19T19:02:36.806Z,64.19
2023-05-19T19:07:41.139Z,58.86
2023-05-19T19:12:43.676Z,58.02
2023-05-19T19:17:46.315Z,61.58
2023-05-19T19:22:51.984Z,64.39
2023-05-19T19:27:55.302Z,59.94
2023-05-19T19:32:59.273Z,57.57
2023-05-19T19:38:01.908Z,58.61
2023-05-19T19:43:06.669Z,64.57
2023-05-19T19:48:09.415Z,65.00
2023-05-19T19:53:12.106Z,61.76
2023-05-19T19:58:14.662Z,57.70
2023-05-19T20:03:17.312Z,59.28
2023-05-19T20:08:20.150Z,62.64
2023-05-19T20:13:23.003Z,65.80
2023-05-19T20:18:27.130Z,63.26
2023-05-19T20:23:29.630Z,61.31
2023-05-19T20:28:32.510Z,56.42
2023-05-19T20:33:35.597Z,57.51
2023-05-19T20:38:39.165Z,59.48
2023-05-19T20:43:42.270Z,65.62
2023-05-19T20:48:44.859Z,66.09
2023-05-19T20:53:47.514Z,63.85
2023-05-19T20:58:50.034Z,61.44
2023-05-19T21:03:52.788Z,57.44
2023-05-19T21:08:55.384Z,58.18
2023-05-19T21:13:58.030Z,63.05
2023-05-19T21:19:01.760Z,64.84
2023-05-19T21:24:04.583Z,63.09
2023-05-19T21:29:07.748Z,60.55
2023-05-19T21:34:10.322Z,57.71
2023-05-19T21:39:13.300Z,57.66
2023-05-19T21:44:15.807Z,59.07
2023-05-19T21:49:18.396Z,64.24
2023-05-19T21:54:21.206Z,65.18
2023-05-19T21:59:24.576Z,63.29
2023-05-19T22:04:31.250Z,61.89
2023-05-19T22:09:33.789Z,57.83
2023-05-19T22:14:36.375Z,57.48
2023-05-19T22:19:38.949Z,59.76
2023-05-19T22:24:41.848Z,67.29
2023-05-19T22:29:44.393Z,65.19
2023-05-19T22:34:47.099Z,63.51
2023-05-19T22:39:49.817Z,60.47
2023-05-19T22:44:52.342Z,56.61
2023-05-19T22:49:55.659Z,56.83
2023-05-19T22:54:59.573Z,58.14
2023-05-19T23:00:02.173Z,60.27
2023-05-19T23:05:05.046Z,68.03
2023-05-19T23:10:07.845Z,66.07
2023-05-19T23:15:10.862Z,61.68
2023-05-19T23:20:13.511Z,60.16
2023-05-19T23:25:16.448Z,55.97
2023-05-19T23:30:19.135Z,56.26
2023-05-19T23:35:22.121Z,57.84
2023-05-19T23:40:24.649Z,60.63
2023-05-19T23:45:27.162Z,65.87
2023-05-19T23:50:29.755Z,65.86
2023-05-19T23:55:32.381Z,60.59
